sensor_id;sensor_type;location;lat;lon;timestamp;temperature;humidity
4366;DHT22;2196;47.422;9.656;2022-07-29T00:01:27;18.60;99.90
4366;DHT22;2196;47.422;9.656;2022-07-29T00:03:55;18.60;99.90
4366;DHT22;2196;47.422;9.656;2022-07-29T00:06:22;18.50;99.90
4366;DHT22;2196;47.422;9.656;2022-07-29T00:08:49;18.50;99.90
4366;DHT22;2196;47.422;9.656;2022-07-29T00:11:16;18.40;99.90
4366;DHT22;2196;47.422;9.656;2022-07-29T00:13:45;18.30;99.90
4366;DHT22;2196;47.422;9.656;2022-07-29T00:16:14;18.20;99.90
4366;DHT22;2196;47.422;9.656;2022-07-29T00:18:41;18.10;99.90
4366;DHT22;2196;47.422;9.656;2022-07-29T00:21:11;18.10;99.90
4366;DHT22;2196;47.422;9.656;2022-07-29T00:23:38;18.10;99.90
4366;DHT22;2196;47.422;9.656;2022-07-29T00:26:08;18.00;99.90
4366;DHT22;2196;47.422;9.656;2022-07-29T00:28:35;18.00;99.90
4366;DHT22;2196;47.422;9.656;2022-07-29T00:31:02;18.10;99.90
4366;DHT22;2196;47.422;9.656;2022-07-29T00:33:30;18.10;99.90
4366;DHT22;2196;47.422;9.656;2022-07-29T00:35:57;18.10;99.90
4366;DHT22;2196;47.422;9.656;2022-07-29T00:38:23;18.00;99.90
4366;DHT22;2196;47.422;9.656;2022-07-29T00:40:50;18.00;99.90
4366;DHT22;2196;47.422;9.656;2022-07-29T00:43:18;17.90;99.90
4366;DHT22;2196;47.422;9.656;2022-07-29T00:45:45;17.90;99.90
4366;DHT22;2196;47.422;9.656;2022-07-29T00:48:12;17.90;99.90
4366;DHT22;2196;47.422;9.656;2022-07-29T00:50:41;18.00;99.90
4366;DHT22;2196;47.422;9.656;2022-07-29T00:53:09;18.00;99.90
4366;DHT22;2196;47.422;9.656;2022-07-29T00:55:38;18.10;99.90
4366;DHT22;2196;47.422;9.656;2022-07-29T00:58:05;18.00;99.90
4366;DHT22;2196;47.422;9.656;2022-07-29T01:00:32;18.00;99.90
4366;DHT22;2196;47.422;9.656;2022-07-29T01:02:59;18.10;99.90
4366;DHT22;2196;47.422;9.656;2022-07-29T01:05:27;18.00;99.90
4366;DHT22;2196;47.422;9.656;2022-07-29T01:07:57;18.00;99.90
4366;DHT22;2196;47.422;9.656;2022-07-29T01:10:24;18.00;99.90
4366;DHT22;2196;47.422;9.656;2022-07-29T01:12:54;18.00;99.90
4366;DHT22;2196;47.422;9.656;2022-07-29T01:15:23;18.00;99.90
4366;DHT22;2196;47.422;9.656;2022-07-29T01:17:58;18.00;99.90
4366;DHT22;2196;47.422;9.656;2022-07-29T01:20:33;18.00;99.90
4366;DHT22;2196;47.422;9.656;2022-07-29T01:23:20;18.00;99.90
4366;DHT22;2196;47.422;9.656;2022-07-29T01:26:14;18.00;99.90
4366;DHT22;2196;47.422;9.656;2022-07-29T01:29:01;17.90;99.90
4366;DHT22;2196;47.422;9.656;2022-07-29T01:31:33;18.00;99.90
4366;DHT22;2196;47.422;9.656;2022-07-29T01:34:03;18.00;99.90
4366;DHT22;2196;47.422;9.656;2022-07-29T01:36:35;18.00;99.90
4366;DHT22;2196;47.422;9.656;2022-07-29T01:39:07;18.00;99.90
4366;DHT22;2196;47.422;9.656;2022-07-29T01:41:38;17.90;99.90
4366;DHT22;2196;47.422;9.656;2022-07-29T01:44:12;18.00;99.90
4366;DHT22;2196;47.422;9.656;2022-07-29T01:46:46;17.90;99.90
4366;DHT22;2196;47.422;9.656;2022-07-29T01:49:18;17.90;99.90
4366;DHT22;2196;47.422;9.656;2022-07-29T01:51:49;17.90;99.90
4366;DHT22;2196;47.422;9.656;2022-07-29T01:54:21;17.90;99.90
4366;DHT22;2196;47.422;9.656;2022-07-29T01:56:51;17.90;99.90
4366;DHT22;2196;47.422;9.656;2022-07-29T01:59:20;17.90;99.90
4366;DHT22;2196;47.422;9.656;2022-07-29T02:01:50;17.80;99.90
4366;DHT22;2196;47.422;9.656;2022-07-29T02:04:19;17.80;99.90
4366;DHT22;2196;47.422;9.656;2022-07-29T02:06:49;17.80;99.90
4366;DHT22;2196;47.422;9.656;2022-07-29T02:09:18;17.80;99.90
4366;DHT22;2196;47.422;9.656;2022-07-29T02:11:48;17.70;99.90
4366;DHT22;2196;47.422;9.656;2022-07-29T02:14:20;17.70;99.90
4366;DHT22;2196;47.422;9.656;2022-07-29T02:16:50;17.80;99.90
4366;DHT22;2196;47.422;9.656;2022-07-29T02:19:21;17.70;99.90
4366;DHT22;2196;47.422;9.656;2022-07-29T02:21:48;17.80;99.90
4366;DHT22;2196;47.422;9.656;2022-07-29T02:24:18;17.70;99.90
4366;DHT22;2196;47.422;9.656;2022-07-29T02:26:47;17.70;99.90
4366;DHT22;2196;47.422;9.656;2022-07-29T02:29:16;17.80;99.90
4366;DHT22;2196;47.422;9.656;2022-07-29T02:31:48;17.70;99.90
4366;DHT22;2196;47.422;9.656;2022-07-29T02:34:17;17.70;99.90
4366;DHT22;2196;47.422;9.656;2022-07-29T02:36:45;17.70;99.90
4366;DHT22;2196;47.422;9.656;2022-07-29T02:39:14;17.60;99.90
4366;DHT22;2196;47.422;9.656;2022-07-29T02:41:44;17.70;99.90
4366;DHT22;2196;47.422;9.656;2022-07-29T02:44:14;17.70;99.90
4366;DHT22;2196;47.422;9.656;2022-07-29T02:46:49;17.60;99.90
4366;DHT22;2196;47.422;9.656;2022-07-29T02:49:22;17.60;99.90
4366;DHT22;2196;47.422;9.656;2022-07-29T02:51:59;17.60;99.90
4366;DHT22;2196;47.422;9.656;2022-07-29T02:54:31;17.70;99.90
4366;DHT22;2196;47.422;9.656;2022-07-29T02:57:03;17.70;99.90
4366;DHT22;2196;47.422;9.656;2022-07-29T02:59:33;17.70;99.90
4366;DHT22;2196;47.422;9.656;2022-07-29T03:02:02;17.70;99.90
4366;DHT22;2196;47.422;9.656;2022-07-29T03:04:32;17.80;99.90
4366;DHT22;2196;47.422;9.656;2022-07-29T03:07:01;17.70;99.90
4366;DHT22;2196;47.422;9.656;2022-07-29T03:09:29;17.70;99.90
4366;DHT22;2196;47.422;9.656;2022-07-29T03:11:57;17.70;99.90
4366;DHT22;2196;47.422;9.656;2022-07-29T03:14:24;17.70;99.90
4366;DHT22;2196;47.422;9.656;2022-07-29T03:16:52;17.70;99.90
4366;DHT22;2196;47.422;9.656;2022-07-29T03:19:21;17.80;99.90
4366;DHT22;2196;47.422;9.656;2022-07-29T03:21:48;17.80;99.90
4366;DHT22;2196;47.422;9.656;2022-07-29T03:24:30;17.80;99.90
4366;DHT22;2196;47.422;9.656;2022-07-29T03:26:58;17.80;99.90
4366;DHT22;2196;47.422;9.656;2022-07-29T03:29:26;17.70;99.90
4366;DHT22;2196;47.422;9.656;2022-07-29T03:31:53;17.70;99.90
4366;DHT22;2196;47.422;9.656;2022-07-29T03:34:22;17.60;99.90
4366;DHT22;2196;47.422;9.656;2022-07-29T03:36:49;17.60;99.90
4366;DHT22;2196;47.422;9.656;2022-07-29T03:39:18;17.60;99.90
4366;DHT22;2196;47.422;9.656;2022-07-29T03:41:49;17.70;99.90
4366;DHT22;2196;47.422;9.656;2022-07-29T03:44:21;17.70;99.90
4366;DHT22;2196;47.422;9.656;2022-07-29T03:46:50;17.70;99.90
4366;DHT22;2196;47.422;9.656;2022-07-29T03:49:20;17.80;99.90
4366;DHT22;2196;47.422;9.656;2022-07-29T03:51:49;17.80;99.90
4366;DHT22;2196;47.422;9.656;2022-07-29T03:54:16;17.80;99.90
4366;DHT22;2196;47.422;9.656;2022-07-29T03:56:46;17.80;99.90
4366;DHT22;2196;47.422;9.656;2022-07-29T03:59:15;17.80;99.90
4366;DHT22;2196;47.422;9.656;2022-07-29T04:01:46;17.80;99.90
4366;DHT22;2196;47.422;9.656;2022-07-29T04:04:15;17.80;99.90
4366;DHT22;2196;47.422;9.656;2022-07-29T04:06:43;17.80;99.90
4366;DHT22;2196;47.422;9.656;2022-07-29T04:09:12;17.80;99.90
4366;DHT22;2196;47.422;9.656;2022-07-29T04:11:40;17.90;99.90
4366;DHT22;2196;47.422;9.656;2022-07-29T04:14:08;17.90;99.90
4366;DHT22;2196;47.422;9.656;2022-07-29T04:16:35;17.90;99.90
4366;DHT22;2196;47.422;9.656;2022-07-29T04:19:02;17.90;99.90
4366;DHT22;2196;47.422;9.656;2022-07-29T04:21:29;17.90;99.90
4366;DHT22;2196;47.422;9.656;2022-07-29T04:23:56;17.90;99.90
4366;DHT22;2196;47.422;9.656;2022-07-29T04:26:25;17.90;99.90
4366;DHT22;2196;47.422;9.656;2022-07-29T04:28:51;17.90;99.90
4366;DHT22;2196;47.422;9.656;2022-07-29T04:31:18;18.00;99.90
4366;DHT22;2196;47.422;9.656;2022-07-29T04:33:46;18.00;99.90
4366;DHT22;2196;47.422;9.656;2022-07-29T04:36:16;18.10;99.90
4366;DHT22;2196;47.422;9.656;2022-07-29T04:38:43;18.10;99.90
4366;DHT22;2196;47.422;9.656;2022-07-29T04:41:13;18.10;99.90
4366;DHT22;2196;47.422;9.656;2022-07-29T04:43:42;18.10;99.90
4366;DHT22;2196;47.422;9.656;2022-07-29T04:46:09;18.10;99.90
4366;DHT22;2196;47.422;9.656;2022-07-29T04:48:39;18.20;99.90
4366;DHT22;2196;47.422;9.656;2022-07-29T04:51:06;18.20;99.90
4366;DHT22;2196;47.422;9.656;2022-07-29T04:53:33;18.30;99.90
4366;DHT22;2196;47.422;9.656;2022-07-29T04:56:00;18.30;99.90
4366;DHT22;2196;47.422;9.656;2022-07-29T04:58:27;18.30;99.90
4366;DHT22;2196;47.422;9.656;2022-07-29T05:00:56;18.50;99.90
4366;DHT22;2196;47.422;9.656;2022-07-29T05:03:23;18.50;99.90
4366;DHT22;2196;47.422;9.656;2022-07-29T05:05:50;18.60;99.90
4366;DHT22;2196;47.422;9.656;2022-07-29T05:08:17;18.60;99.90
4366;DHT22;2196;47.422;9.656;2022-07-29T05:10:44;18.70;99.90
4366;DHT22;2196;47.422;9.656;2022-07-29T05:13:11;18.70;99.90
4366;DHT22;2196;47.422;9.656;2022-07-29T05:15:38;18.70;99.90
4366;DHT22;2196;47.422;9.656;2022-07-29T05:18:06;18.70;99.90
4366;DHT22;2196;47.422;9.656;2022-07-29T05:20:34;18.70;99.90
4366;DHT22;2196;47.422;9.656;2022-07-29T05:23:01;18.80;99.90
4366;DHT22;2196;47.422;9.656;2022-07-29T05:25:29;18.80;99.90
4366;DHT22;2196;47.422;9.656;2022-07-29T05:27:57;18.90;99.90
4366;DHT22;2196;47.422;9.656;2022-07-29T05:30:24;18.90;99.90
4366;DHT22;2196;47.422;9.656;2022-07-29T05:32:51;19.00;99.90
4366;DHT22;2196;47.422;9.656;2022-07-29T05:35:20;19.10;99.90
4366;DHT22;2196;47.422;9.656;2022-07-29T05:37:47;19.20;99.90
4366;DHT22;2196;47.422;9.656;2022-07-29T05:40:14;19.20;99.90
4366;DHT22;2196;47.422;9.656;2022-07-29T05:42:41;19.30;99.90
4366;DHT22;2196;47.422;9.656;2022-07-29T05:45:08;19.40;99.90
4366;DHT22;2196;47.422;9.656;2022-07-29T05:47:36;19.40;99.90
4366;DHT22;2196;47.422;9.656;2022-07-29T05:50:03;19.30;99.90
4366;DHT22;2196;47.422;9.656;2022-07-29T05:52:32;19.20;99.90
4366;DHT22;2196;47.422;9.656;2022-07-29T05:54:59;19.20;99.90
4366;DHT22;2196;47.422;9.656;2022-07-29T05:57:28;19.20;99.90
4366;DHT22;2196;47.422;9.656;2022-07-29T05:59:55;19.00;99.90
4366;DHT22;2196;47.422;9.656;2022-07-29T06:02:22;19.00;99.90
4366;DHT22;2196;47.422;9.656;2022-07-29T06:04:49;18.90;99.90
4366;DHT22;2196;47.422;9.656;2022-07-29T06:07:16;18.90;99.90
4366;DHT22;2196;47.422;9.656;2022-07-29T06:09:44;18.80;99.90
4366;DHT22;2196;47.422;9.656;2022-07-29T06:12:11;18.80;99.90
4366;DHT22;2196;47.422;9.656;2022-07-29T06:14:38;18.80;99.90
4366;DHT22;2196;47.422;9.656;2022-07-29T06:17:05;18.70;99.90
4366;DHT22;2196;47.422;9.656;2022-07-29T06:19:34;18.60;99.90
4366;DHT22;2196;47.422;9.656;2022-07-29T06:22:01;18.60;99.90
4366;DHT22;2196;47.422;9.656;2022-07-29T06:24:28;18.60;99.90
4366;DHT22;2196;47.422;9.656;2022-07-29T06:26:57;18.50;99.90
4366;DHT22;2196;47.422;9.656;2022-07-29T06:29:24;18.60;99.90
4366;DHT22;2196;47.422;9.656;2022-07-29T06:31:51;18.60;99.90
4366;DHT22;2196;47.422;9.656;2022-07-29T06:34:18;18.60;99.90
4366;DHT22;2196;47.422;9.656;2022-07-29T06:36:45;18.60;99.90
4366;DHT22;2196;47.422;9.656;2022-07-29T06:39:12;18.60;99.90
4366;DHT22;2196;47.422;9.656;2022-07-29T06:41:39;18.70;99.90
4366;DHT22;2196;47.422;9.656;2022-07-29T06:44:08;18.70;99.90
4366;DHT22;2196;47.422;9.656;2022-07-29T06:46:35;18.80;99.90
4366;DHT22;2196;47.422;9.656;2022-07-29T06:49:02;18.80;99.90
4366;DHT22;2196;47.422;9.656;2022-07-29T06:51:29;18.90;99.90
4366;DHT22;2196;47.422;9.656;2022-07-29T06:53:56;19.00;99.90
4366;DHT22;2196;47.422;9.656;2022-07-29T06:56:24;19.30;99.90
4366;DHT22;2196;47.422;9.656;2022-07-29T06:58:51;19.50;99.90
4366;DHT22;2196;47.422;9.656;2022-07-29T07:01:19;19.60;99.90
4366;DHT22;2196;47.422;9.656;2022-07-29T07:03:46;19.80;99.90
4366;DHT22;2196;47.422;9.656;2022-07-29T07:06:13;19.80;99.90
4366;DHT22;2196;47.422;9.656;2022-07-29T07:08:40;19.80;99.90
4366;DHT22;2196;47.422;9.656;2022-07-29T07:11:08;20.00;99.90
4366;DHT22;2196;47.422;9.656;2022-07-29T07:13:35;20.10;99.90
4366;DHT22;2196;47.422;9.656;2022-07-29T07:16:02;20.40;99.90
4366;DHT22;2196;47.422;9.656;2022-07-29T07:18:30;20.50;99.90
4366;DHT22;2196;47.422;9.656;2022-07-29T07:20:58;20.60;99.90
4366;DHT22;2196;47.422;9.656;2022-07-29T07:23:25;20.70;99.90
4366;DHT22;2196;47.422;9.656;2022-07-29T07:25:52;20.90;99.90
4366;DHT22;2196;47.422;9.656;2022-07-29T07:28:19;21.10;99.90
4366;DHT22;2196;47.422;9.656;2022-07-29T07:30:46;21.40;99.90
4366;DHT22;2196;47.422;9.656;2022-07-29T07:33:13;22.40;99.90
4366;DHT22;2196;47.422;9.656;2022-07-29T07:35:42;23.30;99.90
4366;DHT22;2196;47.422;9.656;2022-07-29T07:38:09;23.50;99.90
4366;DHT22;2196;47.422;9.656;2022-07-29T07:40:36;23.60;99.90
4366;DHT22;2196;47.422;9.656;2022-07-29T07:43:03;23.50;99.90
4366;DHT22;2196;47.422;9.656;2022-07-29T07:45:30;23.50;99.90
4366;DHT22;2196;47.422;9.656;2022-07-29T07:47:59;23.40;99.90
4366;DHT22;2196;47.422;9.656;2022-07-29T07:50:26;23.30;99.90
4366;DHT22;2196;47.422;9.656;2022-07-29T07:52:55;23.20;99.90
4366;DHT22;2196;47.422;9.656;2022-07-29T07:55:24;23.10;99.90
4366;DHT22;2196;47.422;9.656;2022-07-29T07:57:51;23.10;99.90
4366;DHT22;2196;47.422;9.656;2022-07-29T08:00:18;23.10;99.90
4366;DHT22;2196;47.422;9.656;2022-07-29T08:02:45;23.30;99.90
4366;DHT22;2196;47.422;9.656;2022-07-29T08:05:13;23.70;99.90
4366;DHT22;2196;47.422;9.656;2022-07-29T08:07:43;23.80;99.90
4366;DHT22;2196;47.422;9.656;2022-07-29T08:10:12;23.60;99.90
4366;DHT22;2196;47.422;9.656;2022-07-29T08:12:39;23.10;99.90
4366;DHT22;2196;47.422;9.656;2022-07-29T08:15:07;22.70;99.90
4366;DHT22;2196;47.422;9.656;2022-07-29T08:17:34;22.30;99.90
4366;DHT22;2196;47.422;9.656;2022-07-29T08:20:02;21.80;99.90
4366;DHT22;2196;47.422;9.656;2022-07-29T08:22:30;21.60;99.90
4366;DHT22;2196;47.422;9.656;2022-07-29T08:24:57;21.30;99.90
4366;DHT22;2196;47.422;9.656;2022-07-29T08:27:26;21.20;99.90
4366;DHT22;2196;47.422;9.656;2022-07-29T08:29:55;21.10;99.90
4366;DHT22;2196;47.422;9.656;2022-07-29T08:32:22;21.00;99.90
4366;DHT22;2196;47.422;9.656;2022-07-29T08:34:49;21.00;99.90
4366;DHT22;2196;47.422;9.656;2022-07-29T08:37:16;20.90;99.90
4366;DHT22;2196;47.422;9.656;2022-07-29T08:39:44;20.90;99.90
4366;DHT22;2196;47.422;9.656;2022-07-29T08:42:11;20.70;99.90
4366;DHT22;2196;47.422;9.656;2022-07-29T08:44:40;20.60;99.90
4366;DHT22;2196;47.422;9.656;2022-07-29T08:47:07;20.50;99.90
4366;DHT22;2196;47.422;9.656;2022-07-29T08:49:34;20.40;99.90
4366;DHT22;2196;47.422;9.656;2022-07-29T08:52:02;20.20;99.90
4366;DHT22;2196;47.422;9.656;2022-07-29T08:54:30;20.20;99.90
4366;DHT22;2196;47.422;9.656;2022-07-29T08:56:57;20.30;99.90
4366;DHT22;2196;47.422;9.656;2022-07-29T08:59:25;20.40;99.90
4366;DHT22;2196;47.422;9.656;2022-07-29T09:01:56;20.60;99.90
4366;DHT22;2196;47.422;9.656;2022-07-29T09:04:27;20.80;99.90
4366;DHT22;2196;47.422;9.656;2022-07-29T09:06:57;21.10;99.90
4366;DHT22;2196;47.422;9.656;2022-07-29T09:09:26;21.10;99.90
4366;DHT22;2196;47.422;9.656;2022-07-29T09:11:53;21.10;99.90
4366;DHT22;2196;47.422;9.656;2022-07-29T09:14:20;21.10;99.90
4366;DHT22;2196;47.422;9.656;2022-07-29T09:16:53;21.00;99.90
4366;DHT22;2196;47.422;9.656;2022-07-29T09:19:23;20.90;99.90
4366;DHT22;2196;47.422;9.656;2022-07-29T09:21:51;20.70;99.90
4366;DHT22;2196;47.422;9.656;2022-07-29T09:24:36;20.60;99.90
4366;DHT22;2196;47.422;9.656;2022-07-29T09:27:09;20.60;99.90
4366;DHT22;2196;47.422;9.656;2022-07-29T09:29:37;20.60;99.90
4366;DHT22;2196;47.422;9.656;2022-07-29T09:32:08;20.70;99.90
4366;DHT22;2196;47.422;9.656;2022-07-29T09:34:37;20.80;99.90
4366;DHT22;2196;47.422;9.656;2022-07-29T09:37:04;21.00;99.90
4366;DHT22;2196;47.422;9.656;2022-07-29T09:39:32;21.10;99.90
4366;DHT22;2196;47.422;9.656;2022-07-29T09:42:01;21.20;99.90
4366;DHT22;2196;47.422;9.656;2022-07-29T09:44:41;21.30;99.90
4366;DHT22;2196;47.422;9.656;2022-07-29T09:47:09;21.20;99.90
4366;DHT22;2196;47.422;9.656;2022-07-29T09:49:52;21.20;99.90
4366;DHT22;2196;47.422;9.656;2022-07-29T09:52:20;21.20;99.90
4366;DHT22;2196;47.422;9.656;2022-07-29T09:54:47;21.30;99.90
4366;DHT22;2196;47.422;9.656;2022-07-29T09:57:26;21.40;99.90
4366;DHT22;2196;47.422;9.656;2022-07-29T09:59:58;21.60;99.90
4366;DHT22;2196;47.422;9.656;2022-07-29T10:02:28;21.80;99.90
4366;DHT22;2196;47.422;9.656;2022-07-29T10:04:58;21.80;99.90
4366;DHT22;2196;47.422;9.656;2022-07-29T10:07:25;21.80;99.90
4366;DHT22;2196;47.422;9.656;2022-07-29T10:09:57;21.80;99.90
4366;DHT22;2196;47.422;9.656;2022-07-29T10:12:24;22.00;99.90
4366;DHT22;2196;47.422;9.656;2022-07-29T10:14:51;22.20;99.90
4366;DHT22;2196;47.422;9.656;2022-07-29T10:17:19;22.10;99.90
4366;DHT22;2196;47.422;9.656;2022-07-29T10:19:47;22.00;99.90
4366;DHT22;2196;47.422;9.656;2022-07-29T10:22:16;22.10;99.90
4366;DHT22;2196;47.422;9.656;2022-07-29T10:24:43;22.40;99.90
4366;DHT22;2196;47.422;9.656;2022-07-29T10:27:11;23.30;99.90
4366;DHT22;2196;47.422;9.656;2022-07-29T10:29:38;24.20;99.90
4366;DHT22;2196;47.422;9.656;2022-07-29T10:32:29;25.00;99.90
4366;DHT22;2196;47.422;9.656;2022-07-29T10:35:14;25.50;99.90
4366;DHT22;2196;47.422;9.656;2022-07-29T10:38:10;25.60;99.90
4366;DHT22;2196;47.422;9.656;2022-07-29T10:40:45;25.70;99.90
4366;DHT22;2196;47.422;9.656;2022-07-29T10:43:37;25.30;99.90
4366;DHT22;2196;47.422;9.656;2022-07-29T10:46:08;24.90;99.90
4366;DHT22;2196;47.422;9.656;2022-07-29T10:49:04;24.80;99.90
4366;DHT22;2196;47.422;9.656;2022-07-29T10:51:55;24.70;99.90
4366;DHT22;2196;47.422;9.656;2022-07-29T10:54:39;24.60;99.90
4366;DHT22;2196;47.422;9.656;2022-07-29T10:57:19;24.60;99.90
4366;DHT22;2196;47.422;9.656;2022-07-29T10:59:47;24.50;99.90
4366;DHT22;2196;47.422;9.656;2022-07-29T11:02:40;24.60;99.90
4366;DHT22;2196;47.422;9.656;2022-07-29T11:05:11;24.50;99.90
4366;DHT22;2196;47.422;9.656;2022-07-29T11:07:40;24.70;99.90
4366;DHT22;2196;47.422;9.656;2022-07-29T11:10:27;24.80;99.90
4366;DHT22;2196;47.422;9.656;2022-07-29T11:12:54;25.20;99.90
4366;DHT22;2196;47.422;9.656;2022-07-29T11:15:22;25.30;99.90
4366;DHT22;2196;47.422;9.656;2022-07-29T11:18:08;25.30;99.90
4366;DHT22;2196;47.422;9.656;2022-07-29T11:20:40;25.40;99.90
4366;DHT22;2196;47.422;9.656;2022-07-29T11:23:22;25.50;99.90
4366;DHT22;2196;47.422;9.656;2022-07-29T11:26:20;25.90;99.90
4366;DHT22;2196;47.422;9.656;2022-07-29T11:28:57;26.30;99.90
4366;DHT22;2196;47.422;9.656;2022-07-29T11:31:37;26.40;99.90
4366;DHT22;2196;47.422;9.656;2022-07-29T11:34:22;26.60;99.90
4366;DHT22;2196;47.422;9.656;2022-07-29T11:37:18;26.50;99.90
4366;DHT22;2196;47.422;9.656;2022-07-29T11:39:46;26.80;99.90
4366;DHT22;2196;47.422;9.656;2022-07-29T11:42:37;27.10;99.90
4366;DHT22;2196;47.422;9.656;2022-07-29T11:45:07;26.80;99.90
4366;DHT22;2196;47.422;9.656;2022-07-29T11:47:36;26.50;99.90
4366;DHT22;2196;47.422;9.656;2022-07-29T11:50:05;26.30;99.90
4366;DHT22;2196;47.422;9.656;2022-07-29T11:52:33;26.10;99.90
4366;DHT22;2196;47.422;9.656;2022-07-29T11:55:04;26.10;99.90
4366;DHT22;2196;47.422;9.656;2022-07-29T11:57:34;26.10;99.90
4366;DHT22;2196;47.422;9.656;2022-07-29T12:00:04;26.10;99.90
4366;DHT22;2196;47.422;9.656;2022-07-29T12:02:39;25.80;99.90
4366;DHT22;2196;47.422;9.656;2022-07-29T12:05:08;25.80;99.90
4366;DHT22;2196;47.422;9.656;2022-07-29T12:07:36;25.70;99.90
4366;DHT22;2196;47.422;9.656;2022-07-29T12:10:04;25.70;99.90
4366;DHT22;2196;47.422;9.656;2022-07-29T12:12:32;25.70;99.90
4366;DHT22;2196;47.422;9.656;2022-07-29T12:15:13;25.70;99.90
4366;DHT22;2196;47.422;9.656;2022-07-29T12:17:41;25.80;99.90
4366;DHT22;2196;47.422;9.656;2022-07-29T12:20:08;25.90;99.90
4366;DHT22;2196;47.422;9.656;2022-07-29T12:22:37;25.90;99.90
4366;DHT22;2196;47.422;9.656;2022-07-29T12:25:07;26.00;99.90
4366;DHT22;2196;47.422;9.656;2022-07-29T12:27:35;25.90;99.90
4366;DHT22;2196;47.422;9.656;2022-07-29T12:30:05;25.70;99.90
4366;DHT22;2196;47.422;9.656;2022-07-29T12:32:35;25.70;99.90
4366;DHT22;2196;47.422;9.656;2022-07-29T12:35:04;25.70;99.90
4366;DHT22;2196;47.422;9.656;2022-07-29T12:37:32;25.80;99.90
4366;DHT22;2196;47.422;9.656;2022-07-29T12:40:01;25.80;99.90
4366;DHT22;2196;47.422;9.656;2022-07-29T12:42:28;25.70;99.90
4366;DHT22;2196;47.422;9.656;2022-07-29T12:44:55;25.60;99.90
4366;DHT22;2196;47.422;9.656;2022-07-29T12:47:23;25.40;99.90
4366;DHT22;2196;47.422;9.656;2022-07-29T12:50:07;25.10;99.90
4366;DHT22;2196;47.422;9.656;2022-07-29T12:52:35;25.10;99.90
4366;DHT22;2196;47.422;9.656;2022-07-29T12:55:03;24.90;99.90
4366;DHT22;2196;47.422;9.656;2022-07-29T12:57:31;24.70;99.90
4366;DHT22;2196;47.422;9.656;2022-07-29T13:00:04;24.80;99.90
4366;DHT22;2196;47.422;9.656;2022-07-29T13:02:33;24.80;99.90
4366;DHT22;2196;47.422;9.656;2022-07-29T13:05:01;24.70;99.90
4366;DHT22;2196;47.422;9.656;2022-07-29T13:07:30;24.60;99.90
4366;DHT22;2196;47.422;9.656;2022-07-29T13:10:11;24.50;99.90
4366;DHT22;2196;47.422;9.656;2022-07-29T13:12:39;24.40;99.90
4366;DHT22;2196;47.422;9.656;2022-07-29T13:15:14;24.40;99.90
4366;DHT22;2196;47.422;9.656;2022-07-29T13:17:42;24.40;99.90
4366;DHT22;2196;47.422;9.656;2022-07-29T13:20:12;24.40;99.90
4366;DHT22;2196;47.422;9.656;2022-07-29T13:22:40;24.30;99.90
4366;DHT22;2196;47.422;9.656;2022-07-29T13:25:08;24.10;99.90
4366;DHT22;2196;47.422;9.656;2022-07-29T13:27:38;24.00;99.90
4366;DHT22;2196;47.422;9.656;2022-07-29T13:30:06;24.10;99.90
4366;DHT22;2196;47.422;9.656;2022-07-29T13:32:35;24.10;99.90
4366;DHT22;2196;47.422;9.656;2022-07-29T13:35:05;24.00;99.90
4366;DHT22;2196;47.422;9.656;2022-07-29T13:37:35;24.00;99.90
4366;DHT22;2196;47.422;9.656;2022-07-29T13:40:05;23.90;99.90
4366;DHT22;2196;47.422;9.656;2022-07-29T13:42:32;23.80;99.90
4366;DHT22;2196;47.422;9.656;2022-07-29T13:44:59;23.70;99.90
4366;DHT22;2196;47.422;9.656;2022-07-29T13:47:27;23.50;99.90
4366;DHT22;2196;47.422;9.656;2022-07-29T13:49:54;23.50;99.90
4366;DHT22;2196;47.422;9.656;2022-07-29T13:52:21;23.30;99.90
4366;DHT22;2196;47.422;9.656;2022-07-29T13:54:50;23.30;99.90
4366;DHT22;2196;47.422;9.656;2022-07-29T13:57:17;23.30;99.90
4366;DHT22;2196;47.422;9.656;2022-07-29T13:59:43;23.20;99.90
4366;DHT22;2196;47.422;9.656;2022-07-29T14:02:11;23.20;99.90
4366;DHT22;2196;47.422;9.656;2022-07-29T14:04:39;23.30;99.90
4366;DHT22;2196;47.422;9.656;2022-07-29T14:07:06;23.40;99.90
4366;DHT22;2196;47.422;9.656;2022-07-29T14:09:33;23.40;99.90
4366;DHT22;2196;47.422;9.656;2022-07-29T14:12:02;23.40;99.90
4366;DHT22;2196;47.422;9.656;2022-07-29T14:14:29;23.40;99.90
4366;DHT22;2196;47.422;9.656;2022-07-29T14:16:57;23.30;99.90
4366;DHT22;2196;47.422;9.656;2022-07-29T14:19:25;23.30;99.90
4366;DHT22;2196;47.422;9.656;2022-07-29T14:21:52;23.10;99.90
4366;DHT22;2196;47.422;9.656;2022-07-29T14:24:19;23.00;99.90
4366;DHT22;2196;47.422;9.656;2022-07-29T14:26:46;22.90;99.90
4366;DHT22;2196;47.422;9.656;2022-07-29T14:29:14;22.90;99.90
4366;DHT22;2196;47.422;9.656;2022-07-29T14:31:41;22.90;99.90
4366;DHT22;2196;47.422;9.656;2022-07-29T14:34:09;22.80;99.90
4366;DHT22;2196;47.422;9.656;2022-07-29T14:36:36;22.80;99.90
4366;DHT22;2196;47.422;9.656;2022-07-29T14:39:03;22.70;99.90
4366;DHT22;2196;47.422;9.656;2022-07-29T14:41:30;22.60;99.90
4366;DHT22;2196;47.422;9.656;2022-07-29T14:43:57;22.60;99.90
4366;DHT22;2196;47.422;9.656;2022-07-29T14:46:27;22.60;99.90
4366;DHT22;2196;47.422;9.656;2022-07-29T14:48:54;22.50;99.90
4366;DHT22;2196;47.422;9.656;2022-07-29T14:51:21;22.30;99.90
4366;DHT22;2196;47.422;9.656;2022-07-29T14:53:48;22.20;99.90
4366;DHT22;2196;47.422;9.656;2022-07-29T14:56:15;22.20;99.90
4366;DHT22;2196;47.422;9.656;2022-07-29T14:58:43;22.10;99.90
4366;DHT22;2196;47.422;9.656;2022-07-29T15:01:10;22.00;99.90
4366;DHT22;2196;47.422;9.656;2022-07-29T15:03:41;21.90;99.90
4366;DHT22;2196;47.422;9.656;2022-07-29T15:06:08;21.70;99.90
4366;DHT22;2196;47.422;9.656;2022-07-29T15:08:35;21.70;99.90
4366;DHT22;2196;47.422;9.656;2022-07-29T15:11:02;21.60;99.90
4366;DHT22;2196;47.422;9.656;2022-07-29T15:13:29;21.50;99.90
4366;DHT22;2196;47.422;9.656;2022-07-29T15:15:56;21.40;99.90
4366;DHT22;2196;47.422;9.656;2022-07-29T15:18:23;21.20;99.90
4366;DHT22;2196;47.422;9.656;2022-07-29T15:20:51;21.00;99.90
4366;DHT22;2196;47.422;9.656;2022-07-29T15:23:18;21.00;99.90
4366;DHT22;2196;47.422;9.656;2022-07-29T15:25:45;20.90;99.90
4366;DHT22;2196;47.422;9.656;2022-07-29T15:28:13;20.90;99.90
4366;DHT22;2196;47.422;9.656;2022-07-29T15:30:40;20.90;99.90
4366;DHT22;2196;47.422;9.656;2022-07-29T15:33:07;20.90;99.90
4366;DHT22;2196;47.422;9.656;2022-07-29T15:35:35;20.90;99.90
4366;DHT22;2196;47.422;9.656;2022-07-29T15:38:04;20.80;99.90
4366;DHT22;2196;47.422;9.656;2022-07-29T15:40:31;20.80;99.90
4366;DHT22;2196;47.422;9.656;2022-07-29T15:42:58;20.80;99.90
4366;DHT22;2196;47.422;9.656;2022-07-29T15:45:35;20.70;99.90
4366;DHT22;2196;47.422;9.656;2022-07-29T15:48:04;20.60;99.90
4366;DHT22;2196;47.422;9.656;2022-07-29T15:50:32;20.60;99.90
4366;DHT22;2196;47.422;9.656;2022-07-29T15:53:00;20.50;99.90
4366;DHT22;2196;47.422;9.656;2022-07-29T15:55:28;20.40;99.90
4366;DHT22;2196;47.422;9.656;2022-07-29T15:57:55;20.50;99.90
4366;DHT22;2196;47.422;9.656;2022-07-29T16:00:24;20.40;99.90
4366;DHT22;2196;47.422;9.656;2022-07-29T16:02:51;20.50;99.90
4366;DHT22;2196;47.422;9.656;2022-07-29T16:05:18;20.50;99.90
4366;DHT22;2196;47.422;9.656;2022-07-29T16:07:44;20.50;99.90
4366;DHT22;2196;47.422;9.656;2022-07-29T16:10:12;20.60;99.90
4366;DHT22;2196;47.422;9.656;2022-07-29T16:12:40;20.50;99.90
4366;DHT22;2196;47.422;9.656;2022-07-29T16:15:07;20.40;99.90
4366;DHT22;2196;47.422;9.656;2022-07-29T16:17:35;20.40;99.90